CMA-CGM Fort Saint Pierre — FQFM — position and weather

sailwx.info

Track history (hours):
 
Tides and Currents Weather Stations Pressure Air Temp Water Temp Dewpoint Dewpoint Depression Visibility Wind Speed Wind Dir Waves Ship Positions

CMA-CGM Fort Saint Pierre

Last reported at 2014-Nov-21 16:31 UTC. Time now 2014-Nov-21 16:42 UTC.
Position N 49°28' E 000°09'.

Length 197 m; beam 30 m.

Type: Ship (hazmat cat A). MMSI: 226328000.

Date/timePositionNaut miles runAvg speedWind from/ knotsBaromVisibWave heightAir tempDewpointWater temp
2014-Nov-21 16:31N 49°28' E 000°09'0 0.0
2014-Nov-21 15:31N 49°28' E 000°09'0 0.0
2014-Nov-21 14:31N 49°28' E 000°09'0 0.0
2014-Nov-21 13:31N 49°28' E 000°09'0 0.0
2014-Nov-21 12:31N 49°28' E 000°09'0 0.0
2014-Nov-21 11:31N 49°28' E 000°09'0 0.0
2014-Nov-21 10:31N 49°28' E 000°09'4 4.1
2014-Nov-21 09:34N 49°29' E 000°04'8 7.9
2014-Nov-21 08:33N 49°26' E 000°14'1110.6
2014-Nov-21 07:29N 49°29' E 000°31'6 6.3
2014-Nov-21 06:34N 49°28' E 000°40'1 0.0
2014-Nov-20 07:28N 49°27' E 000°39'8 8.9
2014-Nov-20 06:33N 49°28' E 000°27'1413.7
2014-Nov-20 05:33N 49°26' E 000°06'1110.8
2014-Nov-20 04:33N 49°30' W 000°09'1110.5
2014-Nov-20 03:33N 49°40' W 000°11'5012.5
2014-Nov-19 23:34N 50°29' E 000°06'1414.4
2014-Nov-19 22:34N 50°33' E 000°28'1414.4
2014-Nov-19 21:34N 50°41' E 000°47'1414.4
2014-Nov-19 20:34N 50°50' E 001°05'1414.2
2014-Nov-19 19:34N 50°58' E 001°23'1414.5
2014-Nov-19 18:34N 51°07' E 001°42'1312.9
2014-Nov-19 17:33N 51°03' E 002°02'6 5.7
2014-Nov-19 16:28N 51°01' E 002°11'0 0.0
2014-Nov-19 15:31N 51°01' E 002°11'0 0.0
2014-Nov-19 14:16N 51°01' E 002°11'0 0.0
2014-Nov-19 13:31N 51°01' E 002°11'0 0.0
2014-Nov-19 12:31N 51°01' E 002°11'0 0.0
2014-Nov-19 11:28N 51°01' E 002°11'0 0.0
2014-Nov-19 10:04N 51°01' E 002°11'0 0.0
2014-Nov-19 09:31N 51°01' E 002°11'0 0.0
2014-Nov-19 08:19N 51°01' E 002°11'0 0.0
2014-Nov-19 07:10N 51°01' E 002°11'0 0.0
2014-Nov-19 06:25N 51°01' E 002°11'0 0.0
2014-Nov-19 05:04N 51°01' E 002°11'0 0.0
2014-Nov-19 04:16N 51°01' E 002°11'0 0.0
2014-Nov-19 03:25N 51°01' E 002°11'0 0.0
2014-Nov-19 02:22N 51°01' E 002°11'0 0.0
2014-Nov-19 01:28N 51°01' E 002°11'0 0.0
2014-Nov-18 22:07N 51°01' E 002°11'0 0.0
2014-Nov-18 21:28N 51°01' E 002°11'0 0.0
2014-Nov-18 20:07N 51°01' E 002°11'0 0.0
2014-Nov-18 18:11N 51°01' E 002°11'0 0.0
2014-Nov-18 17:10N 51°01' E 002°11'0 0.0
2014-Nov-18 14:31N 51°01' E 002°11'0 0.0
2014-Nov-18 13:17N 51°01' E 002°11'0 0.0
2014-Nov-18 12:31N 51°01' E 002°11'0 0.0
2014-Nov-18 11:31N 51°01' E 002°11'0 0.0
2014-Nov-18 10:22N 51°01' E 002°11'0 0.0
2014-Nov-18 09:19N 51°01' E 002°11'0 0.0
2014-Nov-18 08:13N 51°01' E 002°11'0 0.0
2014-Nov-18 07:31N 51°01' E 002°11'0 0.0
2014-Nov-18 06:25N 51°01' E 002°11'0 0.0
2014-Nov-18 05:13N 51°01' E 002°11'0 0.0
2014-Nov-18 03:31N 51°01' E 002°11'0 0.0
2014-Nov-18 02:28N 51°01' E 002°11'0 0.0
2014-Nov-18 01:31N 51°01' E 002°11'0 0.0
2014-Nov-18 00:31N 51°01' E 002°11'0 0.0
2014-Nov-17 22:31N 51°01' E 002°11'0 0.0
2014-Nov-17 21:31N 51°01' E 002°11'0 0.0
2014-Nov-17 20:19N 51°01' E 002°11'0 0.0
2014-Nov-17 19:25N 51°01' E 002°11'0 0.0
2014-Nov-17 18:31N 51°01' E 002°11'0 0.0
2014-Nov-17 17:31N 51°01' E 002°11'0 0.0
2014-Nov-17 16:31N 51°01' E 002°11'0 0.0
2014-Nov-17 15:13N 51°01' E 002°11'0 0.1
2014-Nov-17 14:25N 51°01' E 002°11'5 6.1
2014-Nov-17 13:33N 51°03' E 002°03'1111.3
2014-Nov-17 12:33N 51°01' E 001°45'  
2014-Nov-14 04:20N 40°11' W 031°44'1114.5
2014-Nov-14 03:33N 40°04' W 031°56'1414.3
2014-Nov-14 02:33N 39°56' W 032°11'  
Track history (hours):
 
Tides and Currents Weather Stations Pressure Air Temp Water Temp Dewpoint Dewpoint Depression Visibility Wind Speed Wind Dir Waves Ship Positions

CMA-CGM Fort Saint Pierre

Last reported at 2014-Nov-21 16:31 UTC. Time now 2014-Nov-21 16:42 UTC.
Position N 49°28' E 000°09'.

Length 197 m; beam 30 m.

Type: Ship (hazmat cat A). MMSI: 226328000.

Date/timePositionNaut miles runAvg speedWind from/ knotsBaromVisibWave heightAir tempDewpointWater temp
2014-Nov-21 16:31N 49°28' E 000°09'0 0.0
2014-Nov-21 15:31N 49°28' E 000°09'0 0.0
2014-Nov-21 14:31N 49°28' E 000°09'0 0.0
2014-Nov-21 13:31N 49°28' E 000°09'0 0.0
2014-Nov-21 12:31N 49°28' E 000°09'0 0.0
2014-Nov-21 11:31N 49°28' E 000°09'0 0.0
2014-Nov-21 10:31N 49°28' E 000°09'4 4.1
2014-Nov-21 09:34N 49°29' E 000°04'8 7.9
2014-Nov-21 08:33N 49°26' E 000°14'1110.6
2014-Nov-21 07:29N 49°29' E 000°31'6 6.3
2014-Nov-21 06:34N 49°28' E 000°40'1 0.0
2014-Nov-20 07:28N 49°27' E 000°39'8 8.9
2014-Nov-20 06:33N 49°28' E 000°27'1413.7
2014-Nov-20 05:33N 49°26' E 000°06'1110.8
2014-Nov-20 04:33N 49°30' W 000°09'1110.5
2014-Nov-20 03:33N 49°40' W 000°11'5012.5
2014-Nov-19 23:34N 50°29' E 000°06'1414.4
2014-Nov-19 22:34N 50°33' E 000°28'1414.4
2014-Nov-19 21:34N 50°41' E 000°47'1414.4
2014-Nov-19 20:34N 50°50' E 001°05'1414.2
2014-Nov-19 19:34N 50°58' E 001°23'1414.5
2014-Nov-19 18:34N 51°07' E 001°42'1312.9
2014-Nov-19 17:33N 51°03' E 002°02'6 5.7
2014-Nov-19 16:28N 51°01' E 002°11'0 0.0
2014-Nov-19 15:31N 51°01' E 002°11'0 0.0
2014-Nov-19 14:16N 51°01' E 002°11'0 0.0
2014-Nov-19 13:31N 51°01' E 002°11'0 0.0
2014-Nov-19 12:31N 51°01' E 002°11'0 0.0
2014-Nov-19 11:28N 51°01' E 002°11'0 0.0
2014-Nov-19 10:04N 51°01' E 002°11'0 0.0
2014-Nov-19 09:31N 51°01' E 002°11'0 0.0
2014-Nov-19 08:19N 51°01' E 002°11'0 0.0
2014-Nov-19 07:10N 51°01' E 002°11'0 0.0
2014-Nov-19 06:25N 51°01' E 002°11'0 0.0
2014-Nov-19 05:04N 51°01' E 002°11'0 0.0
2014-Nov-19 04:16N 51°01' E 002°11'0 0.0
2014-Nov-19 03:25N 51°01' E 002°11'0 0.0
2014-Nov-19 02:22N 51°01' E 002°11'0 0.0
2014-Nov-19 01:28N 51°01' E 002°11'0 0.0
2014-Nov-18 22:07N 51°01' E 002°11'0 0.0
2014-Nov-18 21:28N 51°01' E 002°11'0 0.0
2014-Nov-18 20:07N 51°01' E 002°11'0 0.0
2014-Nov-18 18:11N 51°01' E 002°11'0 0.0
2014-Nov-18 17:10N 51°01' E 002°11'0 0.0
2014-Nov-18 14:31N 51°01' E 002°11'0 0.0
2014-Nov-18 13:17N 51°01' E 002°11'0 0.0
2014-Nov-18 12:31N 51°01' E 002°11'0 0.0
2014-Nov-18 11:31N 51°01' E 002°11'0 0.0
2014-Nov-18 10:22N 51°01' E 002°11'0 0.0
2014-Nov-18 09:19N 51°01' E 002°11'0 0.0
2014-Nov-18 08:13N 51°01' E 002°11'0 0.0
2014-Nov-18 07:31N 51°01' E 002°11'0 0.0
2014-Nov-18 06:25N 51°01' E 002°11'0 0.0
2014-Nov-18 05:13N 51°01' E 002°11'0 0.0
2014-Nov-18 03:31N 51°01' E 002°11'0 0.0
2014-Nov-18 02:28N 51°01' E 002°11'0 0.0
2014-Nov-18 01:31N 51°01' E 002°11'0 0.0
2014-Nov-18 00:31N 51°01' E 002°11'0 0.0
2014-Nov-17 22:31N 51°01' E 002°11'0 0.0
2014-Nov-17 21:31N 51°01' E 002°11'0 0.0
2014-Nov-17 20:19N 51°01' E 002°11'0 0.0
2014-Nov-17 19:25N 51°01' E 002°11'0 0.0
2014-Nov-17 18:31N 51°01' E 002°11'0 0.0
2014-Nov-17 17:31N 51°01' E 002°11'0 0.0
2014-Nov-17 16:31N 51°01' E 002°11'0 0.0
2014-Nov-17 15:13N 51°01' E 002°11'0 0.1
2014-Nov-17 14:25N 51°01' E 002°11'5 6.1
2014-Nov-17 13:33N 51°03' E 002°03'1111.3
2014-Nov-17 12:33N 51°01' E 001°45'  
2014-Nov-14 04:20N 40°11' W 031°44'1114.5
2014-Nov-14 03:33N 40°04' W 031°56'1414.3
2014-Nov-14 02:33N 39°56' W 032°11'  

Dump ship's entire track history